Echague, Argentina
Current Conditions -  °F | °C
As of 9:00 AM on Wednesday 26 Nov 2014 (Local Time) from SAAR Reporting Station
Broken Clouds Broken Clouds  
Wind Chill: 70°   Ceiling: 4800
Heat Index: 70°   Visibility: 6mi
Dew Point: 59°   Wind: 8mph
Humidity: 68%   Direction: 110°ESE
Pressure: 29.94"   Gusts: NA
Location:  32.47°S, 59.31°W
Report Text: SAAR 261200Z 11007KT 9999 FEW030 BKN04821/15 Q1014
Loading
Personal Weather Stations






























Interactive Weather Map New forecast layout! Learn more

10-Day Weather Forecast

Advertisements
Track Severe Weather on mobile